sensor_id;sensor_type;location;lat;lon;timestamp;P1;durP1;ratioP1;P2;durP2;ratioP2
6131;SDS011;3097;42.692;23.278;2023-07-29T00:00:44;8.07;;;6.37;;
6131;SDS011;3097;42.692;23.278;2023-07-29T00:03:10;9.53;;;5.47;;
6131;SDS011;3097;42.692;23.278;2023-07-29T00:05:36;6.37;;;5.73;;
6131;SDS011;3097;42.692;23.278;2023-07-29T00:08:02;6.70;;;5.67;;
6131;SDS011;3097;42.692;23.278;2023-07-29T00:10:28;6.80;;;5.37;;
6131;SDS011;3097;42.692;23.278;2023-07-29T00:12:54;8.00;;;5.30;;
6131;SDS011;3097;42.692;23.278;2023-07-29T00:15:19;6.60;;;5.20;;
6131;SDS011;3097;42.692;23.278;2023-07-29T00:17:44;6.83;;;5.50;;
6131;SDS011;3097;42.692;23.278;2023-07-29T00:20:10;5.33;;;4.83;;
6131;SDS011;3097;42.692;23.278;2023-07-29T00:22:35;5.40;;;5.00;;
6131;SDS011;3097;42.692;23.278;2023-07-29T00:25:01;6.20;;;5.17;;
6131;SDS011;3097;42.692;23.278;2023-07-29T00:27:27;8.17;;;4.80;;
6131;SDS011;3097;42.692;23.278;2023-07-29T00:29:52;5.87;;;4.83;;
6131;SDS011;3097;42.692;23.278;2023-07-29T00:32:18;4.67;;;4.27;;
6131;SDS011;3097;42.692;23.278;2023-07-29T00:34:43;5.37;;;4.10;;
6131;SDS011;3097;42.692;23.278;2023-07-29T00:37:09;5.20;;;4.80;;
6131;SDS011;3097;42.692;23.278;2023-07-29T00:39:35;6.40;;;5.00;;
6131;SDS011;3097;42.692;23.278;2023-07-29T00:42:02;5.70;;;4.70;;
6131;SDS011;3097;42.692;23.278;2023-07-29T00:44:27;6.13;;;5.00;;
6131;SDS011;3097;42.692;23.278;2023-07-29T00:46:53;5.83;;;5.23;;
6131;SDS011;3097;42.692;23.278;2023-07-29T00:49:20;5.80;;;5.30;;
6131;SDS011;3097;42.692;23.278;2023-07-29T00:51:46;6.43;;;5.60;;
6131;SDS011;3097;42.692;23.278;2023-07-29T00:54:12;5.97;;;5.37;;
6131;SDS011;3097;42.692;23.278;2023-07-29T00:56:38;7.07;;;5.10;;
6131;SDS011;3097;42.692;23.278;2023-07-29T00:59:04;8.53;;;5.93;;
6131;SDS011;3097;42.692;23.278;2023-07-29T01:01:30;5.43;;;4.93;;
6131;SDS011;3097;42.692;23.278;2023-07-29T01:03:56;5.30;;;4.80;;
6131;SDS011;3097;42.692;23.278;2023-07-29T01:09:12;7.07;;;6.00;;
6131;SDS011;3097;42.692;23.278;2023-07-29T01:14:26;6.93;;;6.23;;
6131;SDS011;3097;42.692;23.278;2023-07-29T01:17:07;7.47;;;6.40;;
6131;SDS011;3097;42.692;23.278;2023-07-29T01:22:24;10.30;;;6.10;;
6131;SDS011;3097;42.692;23.278;2023-07-29T01:24:50;6.23;;;5.63;;
6131;SDS011;3097;42.692;23.278;2023-07-29T01:27:16;6.43;;;5.80;;
6131;SDS011;3097;42.692;23.278;2023-07-29T01:29:41;5.83;;;5.30;;
6131;SDS011;3097;42.692;23.278;2023-07-29T01:32:09;6.53;;;5.80;;
6131;SDS011;3097;42.692;23.278;2023-07-29T01:34:45;7.27;;;5.73;;
6131;SDS011;3097;42.692;23.278;2023-07-29T01:37:32;7.63;;;5.43;;
6131;SDS011;3097;42.692;23.278;2023-07-29T01:39:59;7.30;;;5.63;;
6131;SDS011;3097;42.692;23.278;2023-07-29T01:42:26;5.57;;;5.07;;
6131;SDS011;3097;42.692;23.278;2023-07-29T01:44:53;6.00;;;5.50;;
6131;SDS011;3097;42.692;23.278;2023-07-29T01:47:18;5.43;;;4.93;;
6131;SDS011;3097;42.692;23.278;2023-07-29T01:49:47;5.63;;;5.13;;
6131;SDS011;3097;42.692;23.278;2023-07-29T01:52:12;7.50;;;5.33;;
6131;SDS011;3097;42.692;23.278;2023-07-29T01:54:38;5.53;;;4.83;;
6131;SDS011;3097;42.692;23.278;2023-07-29T01:57:03;4.90;;;4.40;;
6131;SDS011;3097;42.692;23.278;2023-07-29T01:59:29;5.60;;;4.87;;
6131;SDS011;3097;42.692;23.278;2023-07-29T02:01:54;6.07;;;5.00;;
6131;SDS011;3097;42.692;23.278;2023-07-29T02:04:19;8.33;;;5.00;;
6131;SDS011;3097;42.692;23.278;2023-07-29T02:06:45;5.03;;;4.63;;
6131;SDS011;3097;42.692;23.278;2023-07-29T02:09:10;6.03;;;4.40;;
6131;SDS011;3097;42.692;23.278;2023-07-29T02:11:36;5.73;;;4.40;;
6131;SDS011;3097;42.692;23.278;2023-07-29T02:14:01;5.47;;;4.93;;
6131;SDS011;3097;42.692;23.278;2023-07-29T02:16:26;4.53;;;4.13;;
6131;SDS011;3097;42.692;23.278;2023-07-29T02:18:52;4.97;;;4.50;;
6131;SDS011;3097;42.692;23.278;2023-07-29T02:21:17;7.53;;;4.30;;
6131;SDS011;3097;42.692;23.278;2023-07-29T02:23:43;4.60;;;4.20;;
6131;SDS011;3097;42.692;23.278;2023-07-29T02:26:08;4.70;;;4.40;;
6131;SDS011;3097;42.692;23.278;2023-07-29T02:28:34;5.43;;;4.93;;
6131;SDS011;3097;42.692;23.278;2023-07-29T02:31:09;5.30;;;4.50;;
6131;SDS011;3097;42.692;23.278;2023-07-29T02:33:42;5.60;;;5.10;;
6131;SDS011;3097;42.692;23.278;2023-07-29T02:36:08;5.30;;;4.90;;
6131;SDS011;3097;42.692;23.278;2023-07-29T02:38:34;5.20;;;4.80;;
6131;SDS011;3097;42.692;23.278;2023-07-29T02:40:59;4.70;;;4.30;;
6131;SDS011;3097;42.692;23.278;2023-07-29T02:43:25;5.23;;;4.67;;
6131;SDS011;3097;42.692;23.278;2023-07-29T02:45:50;4.90;;;4.43;;
6131;SDS011;3097;42.692;23.278;2023-07-29T02:48:16;5.13;;;4.40;;
6131;SDS011;3097;42.692;23.278;2023-07-29T02:50:41;4.87;;;4.07;;
6131;SDS011;3097;42.692;23.278;2023-07-29T02:53:06;5.40;;;5.00;;
6131;SDS011;3097;42.692;23.278;2023-07-29T02:55:32;6.87;;;4.60;;
6131;SDS011;3097;42.692;23.278;2023-07-29T02:57:57;5.17;;;4.50;;
6131;SDS011;3097;42.692;23.278;2023-07-29T03:00:23;5.13;;;4.63;;
6131;SDS011;3097;42.692;23.278;2023-07-29T03:02:49;4.30;;;4.00;;
6131;SDS011;3097;42.692;23.278;2023-07-29T03:05:15;4.73;;;4.33;;
6131;SDS011;3097;42.692;23.278;2023-07-29T03:07:40;4.73;;;4.30;;
6131;SDS011;3097;42.692;23.278;2023-07-29T03:10:06;5.40;;;4.83;;
6131;SDS011;3097;42.692;23.278;2023-07-29T03:12:31;4.17;;;3.87;;
6131;SDS011;3097;42.692;23.278;2023-07-29T03:14:57;5.00;;;4.50;;
6131;SDS011;3097;42.692;23.278;2023-07-29T03:17:22;4.37;;;3.97;;
6131;SDS011;3097;42.692;23.278;2023-07-29T03:19:48;4.37;;;3.97;;
6131;SDS011;3097;42.692;23.278;2023-07-29T03:22:13;4.23;;;3.83;;
6131;SDS011;3097;42.692;23.278;2023-07-29T03:24:39;4.13;;;3.83;;
6131;SDS011;3097;42.692;23.278;2023-07-29T03:27:04;3.93;;;3.63;;
6131;SDS011;3097;42.692;23.278;2023-07-29T03:29:30;4.60;;;4.20;;
6131;SDS011;3097;42.692;23.278;2023-07-29T03:31:55;4.10;;;3.80;;
6131;SDS011;3097;42.692;23.278;2023-07-29T03:34:21;4.07;;;3.73;;
6131;SDS011;3097;42.692;23.278;2023-07-29T03:36:46;4.57;;;3.27;;
6131;SDS011;3097;42.692;23.278;2023-07-29T03:39:13;4.63;;;4.23;;
6131;SDS011;3097;42.692;23.278;2023-07-29T03:41:39;5.00;;;3.67;;
6131;SDS011;3097;42.692;23.278;2023-07-29T03:44:05;4.80;;;4.40;;
6131;SDS011;3097;42.692;23.278;2023-07-29T03:46:31;4.57;;;4.00;;
6131;SDS011;3097;42.692;23.278;2023-07-29T03:48:56;3.63;;;3.37;;
6131;SDS011;3097;42.692;23.278;2023-07-29T03:51:22;5.83;;;4.63;;
6131;SDS011;3097;42.692;23.278;2023-07-29T03:53:49;5.30;;;4.80;;
6131;SDS011;3097;42.692;23.278;2023-07-29T03:56:15;4.47;;;4.10;;
6131;SDS011;3097;42.692;23.278;2023-07-29T03:58:40;5.03;;;4.47;;
6131;SDS011;3097;42.692;23.278;2023-07-29T04:01:08;4.67;;;4.27;;
6131;SDS011;3097;42.692;23.278;2023-07-29T04:03:34;4.03;;;3.73;;
6131;SDS011;3097;42.692;23.278;2023-07-29T04:05:59;6.20;;;4.50;;
6131;SDS011;3097;42.692;23.278;2023-07-29T04:08:25;5.97;;;5.07;;
6131;SDS011;3097;42.692;23.278;2023-07-29T04:13:23;5.87;;;5.27;;
6131;SDS011;3097;42.692;23.278;2023-07-29T04:15:49;4.97;;;4.50;;
6131;SDS011;3097;42.692;23.278;2023-07-29T04:18:14;6.93;;;4.37;;
6131;SDS011;3097;42.692;23.278;2023-07-29T04:20:40;4.73;;;4.33;;
6131;SDS011;3097;42.692;23.278;2023-07-29T04:23:05;4.60;;;3.87;;
6131;SDS011;3097;42.692;23.278;2023-07-29T04:25:30;5.10;;;4.30;;
6131;SDS011;3097;42.692;23.278;2023-07-29T04:27:56;5.17;;;4.07;;
6131;SDS011;3097;42.692;23.278;2023-07-29T04:30:23;4.33;;;4.00;;
6131;SDS011;3097;42.692;23.278;2023-07-29T04:32:48;4.23;;;3.93;;
6131;SDS011;3097;42.692;23.278;2023-07-29T04:35:15;4.87;;;3.80;;
6131;SDS011;3097;42.692;23.278;2023-07-29T04:37:40;4.63;;;4.27;;
6131;SDS011;3097;42.692;23.278;2023-07-29T04:40:06;4.80;;;4.40;;
6131;SDS011;3097;42.692;23.278;2023-07-29T04:42:32;5.67;;;4.97;;
6131;SDS011;3097;42.692;23.278;2023-07-29T04:44:57;5.40;;;4.90;;
6131;SDS011;3097;42.692;23.278;2023-07-29T04:47:23;5.43;;;4.40;;
6131;SDS011;3097;42.692;23.278;2023-07-29T04:49:48;5.00;;;4.63;;
6131;SDS011;3097;42.692;23.278;2023-07-29T04:52:14;5.10;;;4.70;;
6131;SDS011;3097;42.692;23.278;2023-07-29T04:54:40;5.20;;;4.80;;
6131;SDS011;3097;42.692;23.278;2023-07-29T04:57:05;4.53;;;4.23;;
6131;SDS011;3097;42.692;23.278;2023-07-29T04:59:31;5.23;;;4.93;;
6131;SDS011;3097;42.692;23.278;2023-07-29T05:01:56;4.63;;;4.33;;
6131;SDS011;3097;42.692;23.278;2023-07-29T05:04:22;4.60;;;4.30;;
6131;SDS011;3097;42.692;23.278;2023-07-29T05:06:48;5.37;;;4.87;;
6131;SDS011;3097;42.692;23.278;2023-07-29T05:09:17;5.50;;;5.07;;
6131;SDS011;3097;42.692;23.278;2023-07-29T05:11:44;5.10;;;4.78;;
6131;SDS011;3097;42.692;23.278;2023-07-29T05:14:11;5.80;;;5.30;;
6131;SDS011;3097;42.692;23.278;2023-07-29T05:16:38;5.82;;;5.43;;
6131;SDS011;3097;42.692;23.278;2023-07-29T05:19:03;5.15;;;4.75;;
6131;SDS011;3097;42.692;23.278;2023-07-29T05:21:29;7.35;;;5.40;;
6131;SDS011;3097;42.692;23.278;2023-07-29T05:23:54;6.07;;;5.47;;
6131;SDS011;3097;42.692;23.278;2023-07-29T05:26:20;5.70;;;5.30;;
6131;SDS011;3097;42.692;23.278;2023-07-29T05:28:47;5.80;;;5.40;;
6131;SDS011;3097;42.692;23.278;2023-07-29T05:31:12;5.43;;;5.03;;
6131;SDS011;3097;42.692;23.278;2023-07-29T05:33:37;5.47;;;5.07;;
6131;SDS011;3097;42.692;23.278;2023-07-29T05:36:03;7.35;;;5.68;;
6131;SDS011;3097;42.692;23.278;2023-07-29T05:38:29;5.38;;;4.97;;
6131;SDS011;3097;42.692;23.278;2023-07-29T05:40:54;5.47;;;5.05;;
6131;SDS011;3097;42.692;23.278;2023-07-29T05:43:19;6.10;;;5.50;;
6131;SDS011;3097;42.692;23.278;2023-07-29T05:45:45;5.72;;;5.38;;
6131;SDS011;3097;42.692;23.278;2023-07-29T05:48:11;5.53;;;5.20;;
6131;SDS011;3097;42.692;23.278;2023-07-29T05:50:36;5.35;;;5.05;;
6131;SDS011;3097;42.692;23.278;2023-07-29T05:53:01;5.43;;;5.03;;
6131;SDS011;3097;42.692;23.278;2023-07-29T05:55:27;5.03;;;4.72;;
6131;SDS011;3097;42.692;23.278;2023-07-29T05:57:53;4.65;;;4.25;;
6131;SDS011;3097;42.692;23.278;2023-07-29T06:00:18;5.68;;;5.28;;
6131;SDS011;3097;42.692;23.278;2023-07-29T06:02:44;4.70;;;4.40;;
6131;SDS011;3097;42.692;23.278;2023-07-29T06:05:09;5.03;;;4.63;;
6131;SDS011;3097;42.692;23.278;2023-07-29T06:07:35;6.13;;;5.45;;
6131;SDS011;3097;42.692;23.278;2023-07-29T06:10:00;5.20;;;4.90;;
6131;SDS011;3097;42.692;23.278;2023-07-29T06:12:26;5.80;;;5.40;;
6131;SDS011;3097;42.692;23.278;2023-07-29T06:14:51;5.55;;;5.15;;
6131;SDS011;3097;42.692;23.278;2023-07-29T06:17:17;5.38;;;5.05;;
6131;SDS011;3097;42.692;23.278;2023-07-29T06:19:42;5.40;;;5.00;;
6131;SDS011;3097;42.692;23.278;2023-07-29T06:22:09;6.07;;;5.47;;
6131;SDS011;3097;42.692;23.278;2023-07-29T06:24:35;5.43;;;5.07;;
6131;SDS011;3097;42.692;23.278;2023-07-29T06:27:00;6.00;;;5.60;;
6131;SDS011;3097;42.692;23.278;2023-07-29T06:29:26;8.23;;;5.07;;
6131;SDS011;3097;42.692;23.278;2023-07-29T06:31:51;4.80;;;4.50;;
6131;SDS011;3097;42.692;23.278;2023-07-29T06:34:17;4.60;;;4.30;;
6131;SDS011;3097;42.692;23.278;2023-07-29T06:36:43;4.63;;;4.32;;
6131;SDS011;3097;42.692;23.278;2023-07-29T06:39:09;4.30;;;4.00;;
6131;SDS011;3097;42.692;23.278;2023-07-29T06:41:34;4.93;;;4.50;;
6131;SDS011;3097;42.692;23.278;2023-07-29T06:44:00;4.30;;;4.10;;
6131;SDS011;3097;42.692;23.278;2023-07-29T06:46:25;5.00;;;4.68;;
6131;SDS011;3097;42.692;23.278;2023-07-29T06:48:51;4.85;;;4.55;;
6131;SDS011;3097;42.692;23.278;2023-07-29T06:51:16;4.90;;;4.60;;
6131;SDS011;3097;42.692;23.278;2023-07-29T06:53:42;5.47;;;5.07;;
6131;SDS011;3097;42.692;23.278;2023-07-29T06:56:07;4.90;;;4.60;;
6131;SDS011;3097;42.692;23.278;2023-07-29T06:58:32;5.40;;;5.00;;
6131;SDS011;3097;42.692;23.278;2023-07-29T07:00:58;5.35;;;4.95;;
6131;SDS011;3097;42.692;23.278;2023-07-29T07:03:23;5.85;;;5.32;;
6131;SDS011;3097;42.692;23.278;2023-07-29T07:05:49;4.85;;;4.55;;
6131;SDS011;3097;42.692;23.278;2023-07-29T07:08:15;4.97;;;4.60;;
6131;SDS011;3097;42.692;23.278;2023-07-29T07:10:40;5.18;;;4.78;;
6131;SDS011;3097;42.692;23.278;2023-07-29T07:13:06;4.97;;;4.65;;
6131;SDS011;3097;42.692;23.278;2023-07-29T07:15:31;5.80;;;5.32;;
6131;SDS011;3097;42.692;23.278;2023-07-29T07:17:57;5.40;;;5.00;;
6131;SDS011;3097;42.692;23.278;2023-07-29T07:20:22;5.68;;;5.38;;
6131;SDS011;3097;42.692;23.278;2023-07-29T07:22:48;5.10;;;4.80;;
6131;SDS011;3097;42.692;23.278;2023-07-29T07:25:13;5.45;;;5.05;;
6131;SDS011;3097;42.692;23.278;2023-07-29T07:27:38;6.05;;;5.00;;
6131;SDS011;3097;42.692;23.278;2023-07-29T07:30:04;5.50;;;5.10;;
6131;SDS011;3097;42.692;23.278;2023-07-29T07:32:30;4.88;;;4.57;;
6131;SDS011;3097;42.692;23.278;2023-07-29T07:34:55;5.40;;;5.00;;
6131;SDS011;3097;42.692;23.278;2023-07-29T07:37:21;6.03;;;5.43;;
6131;SDS011;3097;42.692;23.278;2023-07-29T07:39:46;5.03;;;4.72;;
6131;SDS011;3097;42.692;23.278;2023-07-29T07:42:12;5.47;;;5.07;;
6131;SDS011;3097;42.692;23.278;2023-07-29T07:44:37;5.82;;;4.95;;
6131;SDS011;3097;42.692;23.278;2023-07-29T07:47:03;5.00;;;4.70;;
6131;SDS011;3097;42.692;23.278;2023-07-29T07:49:28;5.20;;;4.80;;
6131;SDS011;3097;42.692;23.278;2023-07-29T07:51:54;5.15;;;4.82;;
6131;SDS011;3097;42.692;23.278;2023-07-29T07:54:19;5.30;;;4.90;;
6131;SDS011;3097;42.692;23.278;2023-07-29T07:56:44;5.63;;;5.22;;
6131;SDS011;3097;42.692;23.278;2023-07-29T07:59:10;5.25;;;4.95;;
6131;SDS011;3097;42.692;23.278;2023-07-29T08:01:36;4.53;;;4.22;;
6131;SDS011;3097;42.692;23.278;2023-07-29T08:04:04;4.90;;;4.38;;
6131;SDS011;3097;42.692;23.278;2023-07-29T08:06:30;4.72;;;4.32;;
6131;SDS011;3097;42.692;23.278;2023-07-29T08:08:57;4.93;;;4.40;;
6131;SDS011;3097;42.692;23.278;2023-07-29T08:11:22;4.93;;;4.53;;
6131;SDS011;3097;42.692;23.278;2023-07-29T08:13:48;5.95;;;5.45;;
6131;SDS011;3097;42.692;23.278;2023-07-29T08:16:13;4.68;;;4.38;;
6131;SDS011;3097;42.692;23.278;2023-07-29T08:18:39;4.88;;;4.57;;
6131;SDS011;3097;42.692;23.278;2023-07-29T08:21:04;5.38;;;4.40;;
6131;SDS011;3097;42.692;23.278;2023-07-29T08:23:31;4.95;;;4.57;;
6131;SDS011;3097;42.692;23.278;2023-07-29T08:25:58;4.80;;;4.40;;
6131;SDS011;3097;42.692;23.278;2023-07-29T08:28:34;4.80;;;4.40;;
6131;SDS011;3097;42.692;23.278;2023-07-29T08:31:01;4.90;;;4.50;;
6131;SDS011;3097;42.692;23.278;2023-07-29T08:33:27;4.15;;;3.95;;
6131;SDS011;3097;42.692;23.278;2023-07-29T08:35:52;4.35;;;4.05;;
6131;SDS011;3097;42.692;23.278;2023-07-29T08:38:18;5.25;;;4.40;;
6131;SDS011;3097;42.692;23.278;2023-07-29T08:43:48;4.00;;;3.70;;
6131;SDS011;3097;42.692;23.278;2023-07-29T08:46:18;4.10;;;3.80;;
6131;SDS011;3097;42.692;23.278;2023-07-29T08:48:44;3.85;;;3.65;;
6131;SDS011;3097;42.692;23.278;2023-07-29T08:51:11;4.28;;;4.00;;
6131;SDS011;3097;42.692;23.278;2023-07-29T08:53:37;4.30;;;4.00;;
6131;SDS011;3097;42.692;23.278;2023-07-29T08:56:04;4.60;;;4.20;;
6131;SDS011;3097;42.692;23.278;2023-07-29T08:58:30;4.20;;;3.92;;
6131;SDS011;3097;42.692;23.278;2023-07-29T09:00:56;3.78;;;3.47;;
6131;SDS011;3097;42.692;23.278;2023-07-29T09:03:21;3.28;;;3.08;;
6131;SDS011;3097;42.692;23.278;2023-07-29T09:05:47;2.90;;;2.70;;
6131;SDS011;3097;42.692;23.278;2023-07-29T09:08:13;2.92;;;2.72;;
6131;SDS011;3097;42.692;23.278;2023-07-29T09:10:39;2.65;;;2.55;;
6131;SDS011;3097;42.692;23.278;2023-07-29T09:13:04;3.10;;;2.90;;
6131;SDS011;3097;42.692;23.278;2023-07-29T09:15:31;3.10;;;2.90;;
6131;SDS011;3097;42.692;23.278;2023-07-29T09:17:58;3.40;;;3.20;;
6131;SDS011;3097;42.692;23.278;2023-07-29T09:20:27;2.83;;;2.63;;
6131;SDS011;3097;42.692;23.278;2023-07-29T09:22:54;2.78;;;2.67;;
6131;SDS011;3097;42.692;23.278;2023-07-29T09:25:26;3.00;;;2.80;;
6131;SDS011;3097;42.692;23.278;2023-07-29T09:27:52;2.90;;;2.70;;
6131;SDS011;3097;42.692;23.278;2023-07-29T09:30:23;2.53;;;2.25;;
6131;SDS011;3097;42.692;23.278;2023-07-29T09:32:52;2.33;;;2.22;;
6131;SDS011;3097;42.692;23.278;2023-07-29T09:35:22;2.72;;;2.63;;
6131;SDS011;3097;42.692;23.278;2023-07-29T09:37:50;2.90;;;2.80;;
6131;SDS011;3097;42.692;23.278;2023-07-29T09:40:16;2.70;;;2.50;;
6131;SDS011;3097;42.692;23.278;2023-07-29T09:42:52;2.63;;;2.50;;
6131;SDS011;3097;42.692;23.278;2023-07-29T09:45:21;2.33;;;2.22;;
6131;SDS011;3097;42.692;23.278;2023-07-29T09:47:47;2.63;;;2.53;;
6131;SDS011;3097;42.692;23.278;2023-07-29T09:50:14;2.50;;;2.40;;
6131;SDS011;3097;42.692;23.278;2023-07-29T09:52:39;2.35;;;2.25;;
6131;SDS011;3097;42.692;23.278;2023-07-29T09:55:05;1.90;;;1.80;;
6131;SDS011;3097;42.692;23.278;2023-07-29T09:57:31;2.28;;;2.17;;
6131;SDS011;3097;42.692;23.278;2023-07-29T09:59:57;2.05;;;1.95;;
6131;SDS011;3097;42.692;23.278;2023-07-29T10:02:23;2.53;;;2.33;;
6131;SDS011;3097;42.692;23.278;2023-07-29T10:04:50;2.38;;;2.28;;
6131;SDS011;3097;42.692;23.278;2023-07-29T10:07:17;2.30;;;2.20;;
6131;SDS011;3097;42.692;23.278;2023-07-29T10:09:44;2.05;;;1.95;;
6131;SDS011;3097;42.692;23.278;2023-07-29T10:12:10;2.45;;;2.35;;
6131;SDS011;3097;42.692;23.278;2023-07-29T10:14:36;2.40;;;2.13;;
6131;SDS011;3097;42.692;23.278;2023-07-29T10:17:04;1.90;;;1.80;;
6131;SDS011;3097;42.692;23.278;2023-07-29T10:19:30;2.40;;;1.63;;
6131;SDS011;3097;42.692;23.278;2023-07-29T10:21:56;2.20;;;2.10;;
6131;SDS011;3097;42.692;23.278;2023-07-29T10:24:28;2.08;;;1.98;;
6131;SDS011;3097;42.692;23.278;2023-07-29T10:26:59;3.60;;;3.38;;
6131;SDS011;3097;42.692;23.278;2023-07-29T10:29:30;2.50;;;2.30;;
6131;SDS011;3097;42.692;23.278;2023-07-29T10:31:58;2.10;;;2.00;;
6131;SDS011;3097;42.692;23.278;2023-07-29T10:34:28;2.17;;;1.98;;
6131;SDS011;3097;42.692;23.278;2023-07-29T10:36:55;2.00;;;1.90;;
6131;SDS011;3097;42.692;23.278;2023-07-29T10:39:21;1.90;;;1.80;;
6131;SDS011;3097;42.692;23.278;2023-07-29T10:42:01;3.22;;;1.85;;
6131;SDS011;3097;42.692;23.278;2023-07-29T10:47:24;1.50;;;1.40;;
6131;SDS011;3097;42.692;23.278;2023-07-29T10:49:53;1.83;;;1.73;;
6131;SDS011;3097;42.692;23.278;2023-07-29T10:52:39;6.70;;;5.40;;
6131;SDS011;3097;42.692;23.278;2023-07-29T10:58:13;1.20;;;1.20;;
6131;SDS011;3097;42.692;23.278;2023-07-29T11:00:43;1.80;;;1.15;;
6131;SDS011;3097;42.692;23.278;2023-07-29T11:03:11;1.45;;;1.42;;
6131;SDS011;3097;42.692;23.278;2023-07-29T11:05:50;1.70;;;1.60;;
6131;SDS011;3097;42.692;23.278;2023-07-29T11:08:21;1.10;;;1.10;;
6131;SDS011;3097;42.692;23.278;2023-07-29T11:13:27;1.38;;;1.27;;
6131;SDS011;3097;42.692;23.278;2023-07-29T11:15:54;1.10;;;1.10;;
6131;SDS011;3097;42.692;23.278;2023-07-29T11:18:21;2.15;;;1.25;;
6131;SDS011;3097;42.692;23.278;2023-07-29T11:20:46;1.35;;;1.30;;
6131;SDS011;3097;42.692;23.278;2023-07-29T11:23:13;1.35;;;1.25;;
6131;SDS011;3097;42.692;23.278;2023-07-29T11:25:38;1.40;;;1.30;;
6131;SDS011;3097;42.692;23.278;2023-07-29T11:28:04;1.20;;;1.20;;
6131;SDS011;3097;42.692;23.278;2023-07-29T11:30:30;1.50;;;1.40;;
6131;SDS011;3097;42.692;23.278;2023-07-29T11:32:56;2.42;;;1.67;;
6131;SDS011;3097;42.692;23.278;2023-07-29T11:35:23;2.08;;;1.77;;
6131;SDS011;3097;42.692;23.278;2023-07-29T11:37:49;1.60;;;1.50;;
6131;SDS011;3097;42.692;23.278;2023-07-29T11:40:19;1.70;;;1.60;;
6131;SDS011;3097;42.692;23.278;2023-07-29T11:42:46;1.60;;;1.50;;
6131;SDS011;3097;42.692;23.278;2023-07-29T11:45:13;1.45;;;1.45;;
6131;SDS011;3097;42.692;23.278;2023-07-29T11:47:39;1.20;;;1.20;;
6131;SDS011;3097;42.692;23.278;2023-07-29T11:50:05;1.10;;;1.10;;
6131;SDS011;3097;42.692;23.278;2023-07-29T11:52:34;2.17;;;1.30;;
6131;SDS011;3097;42.692;23.278;2023-07-29T11:55:00;1.55;;;1.48;;
6131;SDS011;3097;42.692;23.278;2023-07-29T11:57:28;1.50;;;1.40;;
6131;SDS011;3097;42.692;23.278;2023-07-29T11:59:54;1.60;;;1.50;;
6131;SDS011;3097;42.692;23.278;2023-07-29T12:02:20;1.13;;;1.13;;
6131;SDS011;3097;42.692;23.278;2023-07-29T12:04:46;1.60;;;1.50;;
6131;SDS011;3097;42.692;23.278;2023-07-29T12:07:13;1.50;;;1.40;;
6131;SDS011;3097;42.692;23.278;2023-07-29T12:09:40;1.20;;;1.20;;
6131;SDS011;3097;42.692;23.278;2023-07-29T12:12:07;1.20;;;1.20;;
6131;SDS011;3097;42.692;23.278;2023-07-29T12:14:33;1.58;;;1.48;;
6131;SDS011;3097;42.692;23.278;2023-07-29T12:16:59;1.63;;;1.52;;
6131;SDS011;3097;42.692;23.278;2023-07-29T12:19:31;1.80;;;1.65;;
6131;SDS011;3097;42.692;23.278;2023-07-29T12:21:58;2.05;;;1.70;;
6131;SDS011;3097;42.692;23.278;2023-07-29T12:24:23;1.80;;;1.70;;
6131;SDS011;3097;42.692;23.278;2023-07-29T12:26:49;1.70;;;1.60;;
6131;SDS011;3097;42.692;23.278;2023-07-29T12:29:14;1.70;;;1.60;;
6131;SDS011;3097;42.692;23.278;2023-07-29T12:31:41;6.57;;;6.00;;
6131;SDS011;3097;42.692;23.278;2023-07-29T12:34:07;2.00;;;1.90;;
6131;SDS011;3097;42.692;23.278;2023-07-29T12:36:43;1.85;;;1.75;;
6131;SDS011;3097;42.692;23.278;2023-07-29T12:39:20;2.17;;;2.08;;
6131;SDS011;3097;42.692;23.278;2023-07-29T12:41:47;1.60;;;1.50;;
6131;SDS011;3097;42.692;23.278;2023-07-29T12:44:14;3.30;;;2.70;;
6131;SDS011;3097;42.692;23.278;2023-07-29T12:46:39;5.93;;;5.43;;
6131;SDS011;3097;42.692;23.278;2023-07-29T12:49:05;3.67;;;3.30;;
6131;SDS011;3097;42.692;23.278;2023-07-29T12:51:31;3.25;;;2.40;;
6131;SDS011;3097;42.692;23.278;2023-07-29T12:53:56;2.75;;;1.90;;
6131;SDS011;3097;42.692;23.278;2023-07-29T12:56:22;2.15;;;2.05;;
6131;SDS011;3097;42.692;23.278;2023-07-29T12:58:47;1.65;;;1.55;;
6131;SDS011;3097;42.692;23.278;2023-07-29T13:01:13;2.08;;;1.88;;
6131;SDS011;3097;42.692;23.278;2023-07-29T13:03:42;1.70;;;1.60;;
6131;SDS011;3097;42.692;23.278;2023-07-29T13:06:08;1.42;;;1.40;;
6131;SDS011;3097;42.692;23.278;2023-07-29T13:08:34;1.40;;;1.30;;
6131;SDS011;3097;42.692;23.278;2023-07-29T13:10:59;1.60;;;1.50;;
6131;SDS011;3097;42.692;23.278;2023-07-29T13:13:25;1.73;;;1.63;;
6131;SDS011;3097;42.692;23.278;2023-07-29T13:15:50;1.75;;;1.30;;
6131;SDS011;3097;42.692;23.278;2023-07-29T13:18:16;1.50;;;1.40;;
6131;SDS011;3097;42.692;23.278;2023-07-29T13:20:41;1.50;;;1.40;;
6131;SDS011;3097;42.692;23.278;2023-07-29T13:23:07;3.50;;;3.25;;
6131;SDS011;3097;42.692;23.278;2023-07-29T13:25:32;11.18;;;10.02;;
6131;SDS011;3097;42.692;23.278;2023-07-29T13:27:58;2.90;;;2.70;;
6131;SDS011;3097;42.692;23.278;2023-07-29T13:30:23;1.60;;;1.50;;
6131;SDS011;3097;42.692;23.278;2023-07-29T13:32:49;1.70;;;1.60;;
6131;SDS011;3097;42.692;23.278;2023-07-29T13:35:14;1.80;;;1.70;;
6131;SDS011;3097;42.692;23.278;2023-07-29T13:37:39;2.00;;;1.90;;
6131;SDS011;3097;42.692;23.278;2023-07-29T13:40:05;2.40;;;2.20;;
6131;SDS011;3097;42.692;23.278;2023-07-29T13:42:35;3.38;;;2.70;;
6131;SDS011;3097;42.692;23.278;2023-07-29T13:45:01;3.20;;;3.00;;
6131;SDS011;3097;42.692;23.278;2023-07-29T13:47:27;3.40;;;3.20;;
6131;SDS011;3097;42.692;23.278;2023-07-29T13:49:53;2.47;;;2.30;;
6131;SDS011;3097;42.692;23.278;2023-07-29T13:52:18;2.00;;;1.90;;
6131;SDS011;3097;42.692;23.278;2023-07-29T13:54:43;2.58;;;2.22;;
6131;SDS011;3097;42.692;23.278;2023-07-29T13:57:09;2.33;;;1.80;;
6131;SDS011;3097;42.692;23.278;2023-07-29T13:59:35;2.13;;;2.03;;
6131;SDS011;3097;42.692;23.278;2023-07-29T14:02:04;3.15;;;1.90;;
6131;SDS011;3097;42.692;23.278;2023-07-29T14:04:30;2.00;;;1.90;;
6131;SDS011;3097;42.692;23.278;2023-07-29T14:06:55;3.45;;;2.15;;
6131;SDS011;3097;42.692;23.278;2023-07-29T14:09:21;2.03;;;1.92;;
6131;SDS011;3097;42.692;23.278;2023-07-29T14:11:46;2.75;;;2.55;;
6131;SDS011;3097;42.692;23.278;2023-07-29T14:14:11;2.00;;;1.90;;
6131;SDS011;3097;42.692;23.278;2023-07-29T14:16:37;3.40;;;2.00;;
6131;SDS011;3097;42.692;23.278;2023-07-29T14:19:02;2.00;;;1.90;;
6131;SDS011;3097;42.692;23.278;2023-07-29T14:21:28;2.03;;;1.92;;
6131;SDS011;3097;42.692;23.278;2023-07-29T14:23:53;2.00;;;1.90;;
6131;SDS011;3097;42.692;23.278;2023-07-29T14:26:19;2.30;;;2.20;;
6131;SDS011;3097;42.692;23.278;2023-07-29T14:28:44;1.90;;;1.80;;
6131;SDS011;3097;42.692;23.278;2023-07-29T14:31:10;2.30;;;2.10;;
6131;SDS011;3097;42.692;23.278;2023-07-29T14:33:35;1.80;;;1.70;;
6131;SDS011;3097;42.692;23.278;2023-07-29T14:36:00;2.22;;;2.13;;
6131;SDS011;3097;42.692;23.278;2023-07-29T14:38:28;2.05;;;1.95;;
6131;SDS011;3097;42.692;23.278;2023-07-29T14:40:54;2.85;;;1.95;;
6131;SDS011;3097;42.692;23.278;2023-07-29T14:43:21;2.75;;;2.63;;
6131;SDS011;3097;42.692;23.278;2023-07-29T14:45:48;2.00;;;1.90;;
6131;SDS011;3097;42.692;23.278;2023-07-29T14:48:13;2.20;;;2.10;;
6131;SDS011;3097;42.692;23.278;2023-07-29T14:50:39;2.17;;;2.08;;
6131;SDS011;3097;42.692;23.278;2023-07-29T14:53:04;2.30;;;2.20;;
6131;SDS011;3097;42.692;23.278;2023-07-29T14:55:30;2.17;;;2.08;;
6131;SDS011;3097;42.692;23.278;2023-07-29T14:57:55;2.10;;;2.00;;
6131;SDS011;3097;42.692;23.278;2023-07-29T15:00:20;2.30;;;2.20;;
6131;SDS011;3097;42.692;23.278;2023-07-29T15:02:46;2.00;;;1.90;;
6131;SDS011;3097;42.692;23.278;2023-07-29T15:05:11;2.00;;;1.90;;
6131;SDS011;3097;42.692;23.278;2023-07-29T15:07:37;2.88;;;2.67;;
6131;SDS011;3097;42.692;23.278;2023-07-29T15:10:02;1.92;;;1.83;;
6131;SDS011;3097;42.692;23.278;2023-07-29T15:12:28;2.20;;;2.10;;
6131;SDS011;3097;42.692;23.278;2023-07-29T15:14:53;2.15;;;2.05;;
6131;SDS011;3097;42.692;23.278;2023-07-29T15:17:19;1.83;;;1.73;;